Time;durP1;ratioP1;P1;durP2;ratioP2;P2;SDS_P1;SDS_P2;PMS_P1;PMS_P2;Temp;Humidity;BMP_temperature;BMP_pressure;BME280_temperature;BME280_humidity;BME280_pressure;Samples;Min_cycle;Max_cycle;Signal;HPM_P1;HPM_P2
2024/03/08 00:01:06;;;;;;;31.33;24.45;;;;;;;;;;5092539;28;20048;-66
2024/03/08 00:03:32;;;;;;;37.55;27.92;;;;;;;;;;5093636;28;20041;-66
2024/03/08 00:05:59;;;;;;;43.20;32.88;;;;;;;;;;5093983;28;20060;-66
2024/03/08 00:08:25;;;;;;;30.13;20.85;;;;;;;;;;5093475;28;20042;-66
2024/03/08 00:10:50;;;;;;;29.38;19.73;;;;;;;;;;5093412;28;20119;-66
2024/03/08 00:13:15;;;;;;;27.05;18.80;;;;;;;;;;5092696;28;20058;-66
2024/03/08 00:15:41;;;;;;;28.20;19.58;;;;;;;;;;5093330;28;20517;-65
2024/03/08 00:18:07;;;;;;;31.30;20.50;;;;;;;;;;5096935;28;20032;-67
2024/03/08 00:20:33;;;;;;;33.78;19.67;;;;;;;;;;5079254;28;20020;-67
2024/03/08 00:22:58;;;;;;;34.95;21.05;;;;;;;;;;5097294;28;20036;-70
2024/03/08 00:25:26;;;;;;;35.70;21.52;;;;;;;;;;5096163;28;20037;-70
2024/03/08 00:27:55;;;;;;;39.17;21.23;;;;;;;;;;5097499;28;20020;-70
2024/03/08 00:30:22;;;;;;;36.97;21.67;;;;;;;;;;5095939;28;20550;-71
2024/03/08 00:36:15;;;;;;;34.50;20.52;;;;;;;;;;5081709;23;20052;-69
2024/03/08 00:38:40;;;;;;;36.80;23.08;;;;;;;;;;5097645;28;20363;-69
2024/03/08 00:41:06;;;;;;;40.22;23.42;;;;;;;;;;5078862;28;20025;-69
2024/03/08 00:43:31;;;;;;;34.30;21.88;;;;;;;;;;5097450;28;20028;-69
2024/03/08 00:45:57;;;;;;;33.00;20.27;;;;;;;;;;5097106;28;20070;-69
2024/03/08 00:48:23;;;;;;;27.05;16.95;;;;;;;;;;5097270;28;20039;-69
2024/03/08 00:50:48;;;;;;;26.38;16.67;;;;;;;;;;5078688;28;20392;-68
2024/03/08 00:53:14;;;;;;;31.05;19.23;;;;;;;;;;5097102;28;20089;-68
2024/03/08 00:55:39;;;;;;;31.42;19.65;;;;;;;;;;5096637;28;20044;-68
2024/03/08 00:58:05;;;;;;;26.77;17.45;;;;;;;;;;5078665;28;20035;-68
2024/03/08 01:00:30;;;;;;;23.73;17.08;;;;;;;;;;5096910;28;20028;-69
2024/03/08 01:02:56;;;;;;;24.73;16.58;;;;;;;;;;5096701;28;20426;-69
2024/03/08 01:05:23;;;;;;;23.67;16.13;;;;;;;;;;5097112;28;20490;-70
2024/03/08 01:07:49;;;;;;;23.15;15.30;;;;;;;;;;5096178;28;20107;-70
2024/03/08 01:10:15;;;;;;;26.35;17.15;;;;;;;;;;5096687;28;20038;-70
2024/03/08 01:12:40;;;;;;;25.50;17.00;;;;;;;;;;5096450;28;20115;-67
2024/03/08 01:15:06;;;;;;;30.00;18.73;;;;;;;;;;5096570;28;20032;-67
2024/03/08 01:17:31;;;;;;;23.25;16.17;;;;;;;;;;5096854;28;20028;-68
2024/03/08 01:19:56;;;;;;;20.77;14.25;;;;;;;;;;5096871;28;20023;-67
2024/03/08 01:22:22;;;;;;;20.70;14.52;;;;;;;;;;5096762;28;20024;-67
2024/03/08 01:24:48;;;;;;;19.92;14.05;;;;;;;;;;5078067;28;20089;-68
2024/03/08 01:27:14;;;;;;;21.42;14.82;;;;;;;;;;5077990;28;20036;-68
2024/03/08 01:29:39;;;;;;;19.08;13.48;;;;;;;;;;5077010;28;20115;-69
2024/03/08 01:32:06;;;;;;;20.38;14.15;;;;;;;;;;5095587;28;20161;-69
2024/03/08 01:34:32;;;;;;;22.65;14.82;;;;;;;;;;5095255;28;20039;-69
2024/03/08 01:36:58;;;;;;;19.88;14.30;;;;;;;;;;5095455;28;20043;-64
2024/03/08 01:39:23;;;;;;;19.90;14.20;;;;;;;;;;5095678;28;20032;-70
2024/03/08 01:41:49;;;;;;;18.52;13.40;;;;;;;;;;5096166;28;20040;-69
2024/03/08 01:44:17;;;;;;;19.80;13.00;;;;;;;;;;5095490;28;20095;-69
2024/03/08 01:46:44;;;;;;;18.88;12.30;;;;;;;;;;5078732;28;20036;-69
2024/03/08 01:49:11;;;;;;;19.30;13.18;;;;;;;;;;5096296;28;20064;-70
2024/03/08 01:51:36;;;;;;;16.83;13.23;;;;;;;;;;5095045;28;20028;-68
2024/03/08 01:54:03;;;;;;;16.88;12.43;;;;;;;;;;5077893;28;20081;-69
2024/03/08 01:56:29;;;;;;;16.65;12.77;;;;;;;;;;5095984;28;20059;-69
2024/03/08 01:58:54;;;;;;;15.82;12.35;;;;;;;;;;5095819;28;20070;-69
2024/03/08 02:01:20;;;;;;;20.33;13.23;;;;;;;;;;5095859;28;20028;-69
2024/03/08 02:03:46;;;;;;;16.33;12.88;;;;;;;;;;5078063;28;20032;-69
2024/03/08 02:06:13;;;;;;;16.55;12.90;;;;;;;;;;5095420;28;20016;-69
2024/03/08 02:08:38;;;;;;;15.43;12.05;;;;;;;;;;5077189;28;20027;-69
2024/03/08 02:11:05;;;;;;;16.10;12.48;;;;;;;;;;5095817;28;20478;-69
2024/03/08 02:13:30;;;;;;;15.23;12.38;;;;;;;;;;5093386;28;20020;-68
2024/03/08 02:15:59;;;;;;;16.05;11.00;;;;;;;;;;5095205;28;20486;-67
2024/03/08 02:18:25;;;;;;;15.13;12.27;;;;;;;;;;5095140;28;20032;-67
2024/03/08 02:20:57;;;;;;;19.17;12.38;;;;;;;;;;5095151;28;20081;-67
2024/03/08 02:23:26;;;;;;;15.32;12.18;;;;;;;;;;5095076;28;20028;-66
2024/03/08 02:25:52;;;;;;;13.73;11.73;;;;;;;;;;5095305;28;20028;-66
2024/03/08 02:28:18;;;;;;;17.98;13.05;;;;;;;;;;5076790;28;20077;-66
2024/03/08 02:30:44;;;;;;;15.85;12.25;;;;;;;;;;5076790;28;20050;-66
2024/03/08 02:33:09;;;;;;;16.20;11.93;;;;;;;;;;5095630;28;20519;-67
2024/03/08 02:35:36;;;;;;;15.38;12.27;;;;;;;;;;5093418;28;20044;-67
2024/03/08 02:38:03;;;;;;;16.40;12.38;;;;;;;;;;5094710;28;20053;-67
2024/03/08 02:40:29;;;;;;;14.35;11.82;;;;;;;;;;5094848;28;20028;-67
2024/03/08 02:42:54;;;;;;;15.13;11.90;;;;;;;;;;5095423;28;20482;-62
2024/03/08 02:45:20;;;;;;;16.10;11.57;;;;;;;;;;5094648;28;20051;-62
2024/03/08 02:47:45;;;;;;;16.48;12.23;;;;;;;;;;5095098;28;20460;-62
2024/03/08 02:50:11;;;;;;;17.23;11.88;;;;;;;;;;5076863;28;20028;-62
2024/03/08 02:52:49;;;;;;;15.93;12.00;;;;;;;;;;5077511;22;20071;-62
2024/03/08 02:55:16;;;;;;;13.75;12.27;;;;;;;;;;5031845;28;20080;-67
2024/03/08 02:57:41;;;;;;;13.10;11.30;;;;;;;;;;5033895;28;20435;-67
2024/03/08 03:00:11;;;;;;;15.18;13.15;;;;;;;;;;5033209;28;20033;-62
2024/03/08 03:02:37;;;;;;;14.45;11.68;;;;;;;;;;5034068;28;20394;-63
2024/03/08 03:05:05;;;;;;;15.80;11.32;;;;;;;;;;5034062;28;20029;-63
2024/03/08 03:07:33;;;;;;;15.73;12.68;;;;;;;;;;5034394;28;20025;-63
2024/03/08 03:09:58;;;;;;;17.05;12.68;;;;;;;;;;5032783;28;20456;-63
2024/03/08 03:12:24;;;;;;;15.32;12.18;;;;;;;;;;5034279;28;20110;-63
2024/03/08 03:14:50;;;;;;;14.52;11.77;;;;;;;;;;5034231;28;20029;-68
2024/03/08 03:17:16;;;;;;;15.73;11.40;;;;;;;;;;5033849;28;20386;-67
2024/03/08 03:19:42;;;;;;;16.25;11.98;;;;;;;;;;5034084;28;20132;-67
2024/03/08 03:22:09;;;;;;;15.40;12.32;;;;;;;;;;5033972;28;20029;-67
2024/03/08 03:24:36;;;;;;;16.02;11.35;;;;;;;;;;5016601;28;20017;-67
2024/03/08 03:27:01;;;;;;;14.00;12.25;;;;;;;;;;5032819;28;20029;-67
2024/03/08 03:29:26;;;;;;;15.55;12.40;;;;;;;;;;5034031;28;20119;-69
2024/03/08 03:31:52;;;;;;;16.90;12.68;;;;;;;;;;5033242;28;20036;-67
2024/03/08 03:34:18;;;;;;;14.60;12.05;;;;;;;;;;5032780;28;20028;-66
2024/03/08 03:36:45;;;;;;;12.48;10.32;;;;;;;;;;5033432;28;20029;-67
2024/03/08 03:39:12;;;;;;;14.05;11.98;;;;;;;;;;5034068;28;20029;-69
2024/03/08 03:41:38;;;;;;;16.33;13.05;;;;;;;;;;5033912;28;20029;-68
2024/03/08 03:44:04;;;;;;;14.35;11.65;;;;;;;;;;5016321;28;20048;-68
2024/03/08 03:46:30;;;;;;;13.45;11.07;;;;;;;;;;5033718;28;20049;-68
2024/03/08 03:48:56;;;;;;;14.15;11.40;;;;;;;;;;5015993;28;20033;-68
2024/03/08 03:51:21;;;;;;;14.50;11.05;;;;;;;;;;5033263;28;20057;-68
2024/03/08 03:53:47;;;;;;;14.73;11.65;;;;;;;;;;5033390;28;20507;-69
2024/03/08 03:56:12;;;;;;;13.63;11.43;;;;;;;;;;5033520;28;20080;-68
2024/03/08 03:58:38;;;;;;;15.77;11.57;;;;;;;;;;5016092;28;20033;-69
2024/03/08 04:01:06;;;;;;;15.23;11.40;;;;;;;;;;5016435;28;20045;-68
2024/03/08 04:03:31;;;;;;;12.60;11.25;;;;;;;;;;5033960;28;20021;-67
2024/03/08 04:08:31;;;;;;;15.05;11.48;;;;;;;;;;5071509;28;20053;-69
2024/03/08 04:10:56;;;;;;;16.67;11.43;;;;;;;;;;5074064;28;20037;-69
2024/03/08 04:13:21;;;;;;;15.25;11.23;;;;;;;;;;5073527;28;20108;-70
2024/03/08 04:15:48;;;;;;;16.10;11.88;;;;;;;;;;5073377;28;20032;-70
2024/03/08 04:18:13;;;;;;;15.60;11.80;;;;;;;;;;5055651;28;20128;-70
2024/03/08 04:20:40;;;;;;;13.23;10.88;;;;;;;;;;5088760;28;20060;-69
2024/03/08 04:23:05;;;;;;;15.80;12.38;;;;;;;;;;5073194;28;20447;-68
2024/03/08 04:25:31;;;;;;;15.77;11.43;;;;;;;;;;5073420;28;20074;-68
2024/03/08 04:27:56;;;;;;;16.40;12.45;;;;;;;;;;5073295;28;20037;-68
2024/03/08 04:30:22;;;;;;;16.67;11.55;;;;;;;;;;5071961;28;20032;-68
2024/03/08 04:32:47;;;;;;;17.08;13.30;;;;;;;;;;5072283;28;20048;-69
2024/03/08 04:35:13;;;;;;;13.73;11.23;;;;;;;;;;5073455;28;20043;-68
2024/03/08 04:37:38;;;;;;;15.18;12.02;;;;;;;;;;5088591;28;20013;-71
2024/03/08 04:40:03;;;;;;;16.85;11.95;;;;;;;;;;5073243;28;20526;-71
2024/03/08 04:42:29;;;;;;;21.17;13.80;;;;;;;;;;5073168;28;20082;-72
2024/03/08 04:44:55;;;;;;;22.17;15.18;;;;;;;;;;5088466;28;20020;-71
2024/03/08 04:47:21;;;;;;;20.70;13.68;;;;;;;;;;5072941;28;20387;-71
2024/03/08 04:49:46;;;;;;;18.50;13.77;;;;;;;;;;5072906;28;20040;-70
2024/03/08 04:52:13;;;;;;;17.05;12.70;;;;;;;;;;5088018;28;20051;-74
2024/03/08 04:54:39;;;;;;;17.83;13.10;;;;;;;;;;5071683;28;20128;-72
2024/03/08 04:57:05;;;;;;;18.52;12.52;;;;;;;;;;5072834;28;20070;-72
2024/03/08 05:00:00;;;;;;;16.45;12.95;;;;;;;;;;5122100;22;20052;-69
2024/03/08 05:02:27;;;;;;;16.25;12.52;;;;;;;;;;5069892;22;20052;-69
2024/03/08 05:04:52;;;;;;;17.83;13.30;;;;;;;;;;5056742;28;20048;-69
2024/03/08 05:07:19;;;;;;;16.02;12.38;;;;;;;;;;5075515;28;20063;-69
2024/03/08 05:09:51;;;;;;;15.05;12.13;;;;;;;;;;5041805;28;20037;-67
2024/03/08 05:12:17;;;;;;;18.58;12.35;;;;;;;;;;5076924;28;20032;-67
2024/03/08 05:14:42;;;;;;;15.10;12.35;;;;;;;;;;5058273;28;20395;-63
2024/03/08 05:17:18;;;;;;;15.32;12.32;;;;;;;;;;5076012;28;20020;-69
2024/03/08 05:19:44;;;;;;;13.95;11.35;;;;;;;;;;5076342;28;20024;-70
2024/03/08 05:22:10;;;;;;;14.48;11.07;;;;;;;;;;5076059;28;20028;-70
2024/03/08 05:24:36;;;;;;;13.23;11.43;;;;;;;;;;5076565;28;20025;-70
2024/03/08 05:27:02;;;;;;;16.55;12.65;;;;;;;;;;5076040;28;20032;-70
2024/03/08 05:29:28;;;;;;;20.85;14.13;;;;;;;;;;5076464;28;20078;-71
2024/03/08 05:31:54;;;;;;;18.70;14.13;;;;;;;;;;5076499;28;20032;-70
2024/03/08 05:34:21;;;;;;;15.52;13.02;;;;;;;;;;5075601;28;20032;-70
2024/03/08 05:36:46;;;;;;;15.63;12.90;;;;;;;;;;5075947;28;20028;-69
2024/03/08 05:39:12;;;;;;;18.05;13.25;;;;;;;;;;5075526;28;20520;-66
2024/03/08 05:41:40;;;;;;;13.93;12.35;;;;;;;;;;5075959;28;20042;-71
2024/03/08 05:44:05;;;;;;;14.10;11.15;;;;;;;;;;5076038;28;20097;-70
2024/03/08 05:46:31;;;;;;;13.95;11.43;;;;;;;;;;5075774;28;20078;-70
2024/03/08 05:48:56;;;;;;;14.48;11.70;;;;;;;;;;5075777;28;20582;-71
2024/03/08 05:51:23;;;;;;;14.93;11.32;;;;;;;;;;5075367;28;20434;-70
2024/03/08 05:53:48;;;;;;;13.43;12.02;;;;;;;;;;5075417;28;20044;-71
2024/03/08 05:56:14;;;;;;;14.60;11.25;;;;;;;;;;5075273;28;20036;-70
2024/03/08 05:58:39;;;;;;;13.00;10.82;;;;;;;;;;5075838;28;20039;-70
2024/03/08 06:01:07;;;;;;;13.27;11.35;;;;;;;;;;5040646;28;20028;-70
2024/03/08 06:03:33;;;;;;;12.90;10.57;;;;;;;;;;5075787;28;20449;-70
2024/03/08 06:05:59;;;;;;;14.10;11.38;;;;;;;;;;5074371;28;20150;-71
2024/03/08 06:08:29;;;;;;;11.90;10.70;;;;;;;;;;5073871;28;20033;-71
2024/03/08 06:10:54;;;;;;;;;;;;;;;;;;5074467;28;20040;-71
2024/03/08 06:13:20;;;;;;;14.80;11.07;;;;;;;;;;5075507;28;19915;-71
2024/03/08 06:15:45;;;;;;;14.55;12.55;;;;;;;;;;5074752;28;20033;-71
2024/03/08 06:18:11;;;;;;;12.40;11.13;;;;;;;;;;5075458;28;20036;-69
2024/03/08 06:20:37;;;;;;;13.30;11.32;;;;;;;;;;5075161;28;20112;-69
2024/03/08 06:23:02;;;;;;;13.95;11.23;;;;;;;;;;5074215;28;20059;-70
2024/03/08 06:25:28;;;;;;;13.05;10.40;;;;;;;;;;5071908;28;20464;-70
2024/03/08 06:27:53;;;;;;;12.35;11.05;;;;;;;;;;5073355;28;20050;-70
2024/03/08 06:30:20;;;;;;;11.80;10.23;;;;;;;;;;5073425;28;20043;-69
2024/03/08 06:32:45;;;;;;;12.57;11.27;;;;;;;;;;5071977;28;20024;-62
2024/03/08 06:35:11;;;;;;;12.82;11.50;;;;;;;;;;5072603;28;20047;-65
2024/03/08 06:37:36;;;;;;;14.75;11.35;;;;;;;;;;5072873;28;20070;-65
2024/03/08 06:40:03;;;;;;;17.45;12.02;;;;;;;;;;5074065;28;20012;-65
2024/03/08 06:42:28;;;;;;;13.75;11.25;;;;;;;;;;5074763;28;20068;-66
2024/03/08 06:44:59;;;;;;;18.05;13.65;;;;;;;;;;5074472;28;20024;-65
2024/03/08 06:47:25;;;;;;;15.35;11.75;;;;;;;;;;5074420;28;20094;-65
2024/03/08 06:49:51;;;;;;;15.13;11.30;;;;;;;;;;5074646;28;20036;-65
2024/03/08 06:52:17;;;;;;;14.20;10.20;;;;;;;;;;5074557;28;20056;-66
2024/03/08 06:54:44;;;;;;;12.88;10.73;;;;;;;;;;5074271;28;20063;-65
2024/03/08 06:57:10;;;;;;;13.80;10.80;;;;;;;;;;5074341;28;20454;-65
2024/03/08 06:59:36;;;;;;;15.90;11.25;;;;;;;;;;5074134;28;20388;-65
2024/03/08 07:02:01;;;;;;;16.67;11.55;;;;;;;;;;5073993;28;20032;-65
2024/03/08 07:04:29;;;;;;;13.35;10.00;;;;;;;;;;5074358;28;20024;-65
2024/03/08 07:06:55;;;;;;;10.57;8.77;;;;;;;;;;5072898;28;20461;-65
2024/03/08 07:09:21;;;;;;;13.82;10.88;;;;;;;;;;5074049;28;20036;-65
2024/03/08 07:11:46;;;;;;;12.57;10.00;;;;;;;;;;5074493;28;20021;-65
2024/03/08 07:14:12;;;;;;;13.85;10.93;;;;;;;;;;5073064;28;20435;-65
2024/03/08 07:16:38;;;;;;;15.55;12.05;;;;;;;;;;5073829;28;20039;-65
2024/03/08 07:19:04;;;;;;;14.60;11.05;;;;;;;;;;5073852;28;20372;-65
2024/03/08 07:21:30;;;;;;;12.95;11.35;;;;;;;;;;5073850;28;20559;-64
2024/03/08 07:26:27;;;;;;;34.00;22.73;;;;;;;;;;5073702;28;20388;-65
2024/03/08 07:28:54;;;;;;;23.83;15.43;;;;;;;;;;5074620;28;20040;-64
2024/03/08 07:33:53;;;;;;;15.38;12.40;;;;;;;;;;5073964;28;20440;-64
2024/03/08 07:36:18;;;;;;;14.50;10.35;;;;;;;;;;5073611;28;20051;-64
2024/03/08 07:38:46;;;;;;;14.73;10.98;;;;;;;;;;5073932;28;20063;-65
2024/03/08 07:41:12;;;;;;;13.43;10.43;;;;;;;;;;5072748;28;20384;-64
2024/03/08 07:43:38;;;;;;;15.32;11.50;;;;;;;;;;5073577;28;20025;-64
2024/03/08 07:46:03;;;;;;;16.15;13.00;;;;;;;;;;5073579;28;20078;-64
2024/03/08 07:48:30;;;;;;;12.18;9.82;;;;;;;;;;5073510;28;20050;-64
2024/03/08 07:50:55;;;;;;;13.10;9.65;;;;;;;;;;5073804;28;20028;-64
2024/03/08 07:53:21;;;;;;;15.30;11.48;;;;;;;;;;5073487;28;20464;-65
2024/03/08 07:55:47;;;;;;;10.55;9.45;;;;;;;;;;5073421;28;20029;-65
2024/03/08 07:58:13;;;;;;;15.82;11.82;;;;;;;;;;5073429;28;20464;-65
2024/03/08 08:00:38;;;;;;;15.63;11.43;;;;;;;;;;5073429;28;20032;-65
2024/03/08 08:03:04;;;;;;;13.98;10.63;;;;;;;;;;5073199;28;20035;-64
2024/03/08 08:05:32;;;;;;;14.48;11.98;;;;;;;;;;5072173;28;20029;-65
2024/03/08 08:07:57;;;;;;;18.13;12.82;;;;;;;;;;5073385;28;20039;-64
2024/03/08 08:10:24;;;;;;;11.93;9.93;;;;;;;;;;5073884;28;20107;-64
2024/03/08 08:12:51;;;;;;;19.40;14.75;;;;;;;;;;5073833;28;20095;-64
2024/03/08 08:15:18;;;;;;;14.80;11.38;;;;;;;;;;5072008;28;20028;-64
2024/03/08 08:17:44;;;;;;;17.48;12.35;;;;;;;;;;5073477;28;20476;-64
2024/03/08 08:20:11;;;;;;;15.15;10.63;;;;;;;;;;5073235;28;20043;-64
2024/03/08 08:22:38;;;;;;;10.73;9.13;;;;;;;;;;5073453;28;20035;-65
2024/03/08 08:25:03;;;;;;;19.85;14.10;;;;;;;;;;5072552;28;20036;-65
2024/03/08 08:27:29;;;;;;;14.88;11.70;;;;;;;;;;5072240;28;20033;-65
2024/03/08 08:29:55;;;;;;;15.65;11.45;;;;;;;;;;5071861;28;20028;-65
2024/03/08 08:32:21;;;;;;;13.82;10.77;;;;;;;;;;5073687;28;20087;-65
2024/03/08 08:34:46;;;;;;;11.45;9.25;;;;;;;;;;5071810;28;20476;-65
2024/03/08 08:37:12;;;;;;;17.80;12.65;;;;;;;;;;5073201;28;20037;-65
2024/03/08 08:39:38;;;;;;;15.93;11.63;;;;;;;;;;5077118;28;20095;-65
2024/03/08 08:42:03;;;;;;;14.70;11.63;;;;;;;;;;5077344;28;20059;-65
2024/03/08 08:44:28;;;;;;;14.45;11.45;;;;;;;;;;5075500;28;20116;-65
2024/03/08 08:46:54;;;;;;;17.90;11.90;;;;;;;;;;5076705;28;20469;-65
2024/03/08 08:49:20;;;;;;;17.08;12.95;;;;;;;;;;5076691;28;20441;-65
2024/03/08 08:51:48;;;;;;;12.45;9.80;;;;;;;;;;5076656;28;20025;-65
2024/03/08 08:54:16;;;;;;;13.45;10.48;;;;;;;;;;5099359;22;20050;-65
2024/03/08 08:56:43;;;;;;;14.18;10.57;;;;;;;;;;5097052;28;20040;-65
2024/03/08 08:59:09;;;;;;;10.75;8.65;;;;;;;;;;5097060;28;20376;-65
2024/03/08 09:01:34;;;;;;;15.20;12.35;;;;;;;;;;5096711;28;20032;-65
2024/03/08 09:03:59;;;;;;;11.48;9.93;;;;;;;;;;5096674;28;20020;-65
2024/03/08 09:06:25;;;;;;;17.05;12.15;;;;;;;;;;5078596;28;20462;-65
2024/03/08 09:08:51;;;;;;;16.75;13.05;;;;;;;;;;5096650;28;20052;-65
2024/03/08 09:11:16;;;;;;;20.10;13.85;;;;;;;;;;5078724;28;20020;-65
2024/03/08 09:13:44;;;;;;;16.83;11.02;;;;;;;;;;5095522;28;20488;-65
2024/03/08 09:16:10;;;;;;;18.08;13.18;;;;;;;;;;5096367;28;20024;-66
2024/03/08 09:18:36;;;;;;;26.05;17.85;;;;;;;;;;5096378;28;20388;-66
2024/03/08 09:21:01;;;;;;;16.95;12.77;;;;;;;;;;5078302;28;20028;-66
2024/03/08 09:23:30;;;;;;;24.15;16.17;;;;;;;;;;5096302;28;20028;-66
2024/03/08 09:25:58;;;;;;;13.77;11.30;;;;;;;;;;5096297;28;20024;-65
2024/03/08 09:28:23;;;;;;;22.00;15.25;;;;;;;;;;5096768;28;20024;-65
2024/03/08 09:30:49;;;;;;;17.33;12.07;;;;;;;;;;5096453;28;20090;-66
2024/03/08 09:33:19;;;;;;;16.52;11.30;;;;;;;;;;5077949;28;20032;-66
2024/03/08 09:35:46;;;;;;;15.88;12.15;;;;;;;;;;5078232;28;20040;-66
2024/03/08 09:38:13;;;;;;;20.23;14.50;;;;;;;;;;5110525;22;20048;-75
2024/03/08 09:40:38;;;;;;;19.55;14.10;;;;;;;;;;5095937;28;20033;-75
2024/03/08 09:43:04;;;;;;;19.42;14.70;;;;;;;;;;5095976;28;20026;-75
2024/03/08 09:45:31;;;;;;;18.85;12.88;;;;;;;;;;5096172;28;20389;-75
2024/03/08 09:47:57;;;;;;;16.88;13.90;;;;;;;;;;5095815;28;20111;-75
2024/03/08 09:50:22;;;;;;;20.67;15.10;;;;;;;;;;5095474;28;20112;-75
2024/03/08 09:52:48;;;;;;;20.25;14.40;;;;;;;;;;5077560;28;20414;-75
2024/03/08 09:55:17;;;;;;;27.35;20.55;;;;;;;;;;5095697;28;20031;-75
2024/03/08 09:58:15;;;;;;;20.88;15.90;;;;;;;;;;5109379;22;20052;-65
2024/03/08 10:00:28;;;;;;;14.32;10.60;;;;;;;;;;5095502;28;20085;-65
2024/03/08 10:02:53;;;;;;;16.55;12.98;;;;;;;;;;5095555;28;20491;-65
2024/03/08 10:05:19;;;;;;;18.70;14.38;;;;;;;;;;5077501;28;20541;-65
2024/03/08 10:07:44;;;;;;;16.88;13.15;;;;;;;;;;5095692;28;20020;-65
2024/03/08 10:10:11;;;;;;;17.02;11.73;;;;;;;;;;5077234;28;20369;-65
2024/03/08 10:12:38;;;;;;;15.98;10.88;;;;;;;;;;5095319;28;20471;-65
2024/03/08 10:15:05;;;;;;;16.60;11.25;;;;;;;;;;5095283;28;20422;-65
2024/03/08 10:17:32;;;;;;;13.20;10.88;;;;;;;;;;5094282;28;20036;-66
2024/03/08 10:19:58;;;;;;;22.15;14.88;;;;;;;;;;5095760;28;20407;-65
2024/03/08 10:22:25;;;;;;;16.33;11.60;;;;;;;;;;5095146;28;20020;-66
2024/03/08 10:24:51;;;;;;;21.05;14.43;;;;;;;;;;5093876;28;20043;-65
2024/03/08 10:27:17;;;;;;;10.27;7.90;;;;;;;;;;5095033;28;20020;-65
2024/03/08 10:29:44;;;;;;;14.75;11.13;;;;;;;;;;5095008;28;20032;-65
2024/03/08 10:32:09;;;;;;;32.17;19.20;;;;;;;;;;5076818;28;20033;-65
2024/03/08 10:34:35;;;;;;;14.55;11.50;;;;;;;;;;5095178;28;20387;-65
2024/03/08 10:37:04;;;;;;;14.25;10.57;;;;;;;;;;5094828;28;20084;-65
2024/03/08 10:39:34;;;;;;;15.48;11.60;;;;;;;;;;5076698;28;20472;-65
2024/03/08 10:42:15;;;;;;;20.98;14.30;;;;;;;;;;5094812;28;20024;-66
2024/03/08 10:44:48;;;;;;;16.63;11.00;;;;;;;;;;5094991;28;20027;-65
2024/03/08 10:47:25;;;;;;;17.73;11.68;;;;;;;;;;5094684;28;20040;-65
2024/03/08 10:49:54;;;;;;;13.77;9.48;;;;;;;;;;5093407;28;20156;-65
2024/03/08 10:52:20;;;;;;;18.08;13.10;;;;;;;;;;5093328;28;20396;-65
2024/03/08 10:54:47;;;;;;;17.10;12.02;;;;;;;;;;5076411;28;20028;-64
2024/03/08 10:57:12;;;;;;;15.80;11.23;;;;;;;;;;5094496;28;20047;-64
2024/03/08 10:59:39;;;;;;;17.27;12.30;;;;;;;;;;5094478;28;20016;-65
2024/03/08 11:02:04;;;;;;;17.50;12.40;;;;;;;;;;5076268;28;20040;-65
2024/03/08 11:04:33;;;;;;;12.32;9.40;;;;;;;;;;5094413;28;20092;-65
2024/03/08 11:07:05;;;;;;;15.45;11.50;;;;;;;;;;5125102;22;20109;-65
2024/03/08 11:09:30;;;;;;;14.90;11.20;;;;;;;;;;5055863;28;20037;-65
2024/03/08 11:12:15;;;;;;;14.57;10.68;;;;;;;;;;5073972;28;20362;-64
2024/03/08 11:14:46;;;;;;;14.38;10.13;;;;;;;;;;5073927;28;20033;-64
2024/03/08 11:17:11;;;;;;;;;;;;;;;;;;5074271;28;20124;-64
2024/03/08 11:19:36;;;;;;;15.57;10.83;;;;;;;;;;5074434;28;20011;-64
2024/03/08 11:22:03;;;;;;;11.70;9.20;;;;;;;;;;5074382;28;20294;-65
2024/03/08 11:24:37;;;;;;;15.45;11.15;;;;;;;;;;5074121;28;20099;-64
2024/03/08 11:27:04;;;;;;;17.48;12.82;;;;;;;;;;5055959;28;20032;-65
2024/03/08 11:29:35;;;;;;;16.55;11.57;;;;;;;;;;5074038;28;20075;-66
2024/03/08 11:32:21;;;;;;;15.98;11.63;;;;;;;;;;5056144;28;20045;-65
2024/03/08 11:34:49;;;;;;;14.95;11.07;;;;;;;;;;5074240;28;20146;-65
2024/03/08 11:37:15;;;;;;;12.18;9.40;;;;;;;;;;5073851;28;20035;-65
2024/03/08 11:40:01;;;;;;;13.57;10.88;;;;;;;;;;5073661;28;20024;-65
2024/03/08 11:42:26;;;;;;;15.82;11.10;;;;;;;;;;5072734;28;20056;-65
2024/03/08 11:44:52;;;;;;;15.70;12.02;;;;;;;;;;5073807;28;20413;-65
2024/03/08 11:47:19;;;;;;;14.45;12.02;;;;;;;;;;5073815;28;20032;-65
2024/03/08 11:49:44;;;;;;;16.23;12.80;;;;;;;;;;5074108;28;20039;-65
2024/03/08 11:52:12;;;;;;;17.00;12.32;;;;;;;;;;5073410;28;20020;-65
2024/03/08 11:54:38;;;;;;;14.05;12.45;;;;;;;;;;5073527;28;20037;-65
2024/03/08 11:57:04;;;;;;;17.38;11.68;;;;;;;;;;5073649;28;20032;-65
2024/03/08 11:59:30;;;;;;;17.85;12.27;;;;;;;;;;5072188;28;20035;-65
2024/03/08 12:02:05;;;;;;;14.50;11.35;;;;;;;;;;5073407;28;20473;-66
2024/03/08 12:04:31;;;;;;;14.85;11.30;;;;;;;;;;5073946;28;20025;-65
2024/03/08 12:07:00;;;;;;;14.70;10.65;;;;;;;;;;5073457;28;20094;-65
2024/03/08 12:09:26;;;;;;;15.20;12.33;;;;;;;;;;5055417;28;20041;-65
2024/03/08 12:11:51;;;;;;;14.73;11.20;;;;;;;;;;5073314;28;20031;-66
2024/03/08 12:14:17;;;;;;;15.85;11.15;;;;;;;;;;5077299;28;20039;-66
2024/03/08 12:16:42;;;;;;;17.10;12.35;;;;;;;;;;5077527;28;20362;-66
2024/03/08 12:19:09;;;;;;;15.15;9.82;;;;;;;;;;5077218;28;20027;-65
2024/03/08 12:21:35;;;;;;;16.33;12.68;;;;;;;;;;5077250;28;20015;-65
2024/03/08 12:24:04;;;;;;;16.25;11.93;;;;;;;;;;5077458;28;20098;-66
2024/03/08 12:26:32;;;;;;;16.42;11.63;;;;;;;;;;5077418;28;20039;-65
2024/03/08 12:29:14;;;;;;;14.23;10.50;;;;;;;;;;5077083;28;20419;-66
2024/03/08 12:31:42;;;;;;;15.32;12.75;;;;;;;;;;5077281;28;20110;-66
2024/03/08 12:34:09;;;;;;;14.50;11.27;;;;;;;;;;5076974;28;20047;-66
2024/03/08 12:36:36;;;;;;;16.10;12.02;;;;;;;;;;5058900;28;20427;-66
2024/03/08 12:39:02;;;;;;;16.20;11.77;;;;;;;;;;5076865;28;20024;-67
2024/03/08 12:41:28;;;;;;;16.05;11.50;;;;;;;;;;5077108;28;20044;-65
2024/03/08 12:43:55;;;;;;;15.77;10.38;;;;;;;;;;5075557;28;20025;-65
2024/03/08 12:46:21;;;;;;;12.55;9.90;;;;;;;;;;5075846;28;20136;-66
2024/03/08 12:48:49;;;;;;;12.85;8.70;;;;;;;;;;5077288;28;20067;-65
2024/03/08 12:51:15;;;;;;;10.65;8.63;;;;;;;;;;5076653;28;20460;-65
2024/03/08 12:53:44;;;;;;;15.57;9.93;;;;;;;;;;5077508;28;20024;-65
2024/03/08 12:56:10;;;;;;;14.27;11.57;;;;;;;;;;5078341;28;20033;-65
2024/03/08 12:58:36;;;;;;;16.88;10.45;;;;;;;;;;5078102;28;20028;-65
2024/03/08 13:01:04;;;;;;;15.40;12.38;;;;;;;;;;5076468;28;20122;-65
2024/03/08 13:03:30;;;;;;;14.43;10.27;;;;;;;;;;5076716;28;20035;-65
2024/03/08 13:05:56;;;;;;;13.98;10.95;;;;;;;;;;5076692;28;20384;-65
2024/03/08 13:08:24;;;;;;;9.75;7.85;;;;;;;;;;5076237;28;20128;-65
2024/03/08 13:10:51;;;;;;;12.35;10.25;;;;;;;;;;5058419;28;20032;-65
2024/03/08 13:13:16;;;;;;;16.13;11.50;;;;;;;;;;5076271;28;20025;-66
2024/03/08 13:15:42;;;;;;;16.95;11.18;;;;;;;;;;5098251;22;20117;-66
2024/03/08 13:18:09;;;;;;;18.60;12.70;;;;;;;;;;5096448;28;20056;-65
2024/03/08 13:20:37;;;;;;;13.48;10.23;;;;;;;;;;5096643;28;20052;-65
2024/03/08 13:23:03;;;;;;;13.07;9.07;;;;;;;;;;5096344;28;20038;-65
2024/03/08 13:25:28;;;;;;;11.10;8.77;;;;;;;;;;5076877;28;20024;-65
2024/03/08 13:27:56;;;;;;;15.18;10.95;;;;;;;;;;5096245;28;20089;-65
2024/03/08 13:30:24;;;;;;;13.85;10.77;;;;;;;;;;5096201;28;20032;-66
2024/03/08 13:32:51;;;;;;;16.75;11.27;;;;;;;;;;5096054;28;20028;-66
2024/03/08 13:35:23;;;;;;;14.30;11.45;;;;;;;;;;5096119;28;20456;-62
2024/03/08 13:37:49;;;;;;;13.55;10.35;;;;;;;;;;5095981;28;20060;-62
2024/03/08 13:40:16;;;;;;;15.77;11.30;;;;;;;;;;5077926;28;20510;-63
2024/03/08 13:42:42;;;;;;;13.73;11.00;;;;;;;;;;5096197;28;20020;-62
2024/03/08 13:45:10;;;;;;;17.60;11.23;;;;;;;;;;5095889;28;20072;-63
2024/03/08 13:47:37;;;;;;;13.95;10.05;;;;;;;;;;5078146;28;20028;-63
2024/03/08 13:50:02;;;;;;;14.98;10.52;;;;;;;;;;5077781;28;20016;-63
2024/03/08 13:52:30;;;;;;;21.40;14.32;;;;;;;;;;5096055;28;20051;-62
2024/03/08 13:54:56;;;;;;;12.50;9.48;;;;;;;;;;5096244;28;20058;-63
2024/03/08 13:57:22;;;;;;;16.08;11.38;;;;;;;;;;5095592;28;20063;-63
2024/03/08 13:59:51;;;;;;;17.33;13.05;;;;;;;;;;5095333;28;20422;-63
2024/03/08 14:02:17;;;;;;;16.98;12.25;;;;;;;;;;5092910;28;20107;-62
2024/03/08 14:04:42;;;;;;;18.63;13.43;;;;;;;;;;5093580;28;20051;-62
2024/03/08 14:07:08;;;;;;;16.98;12.43;;;;;;;;;;5093510;28;20050;-62
2024/03/08 14:09:37;;;;;;;23.17;12.50;;;;;;;;;;5093819;28;20378;-71
2024/03/08 14:12:05;;;;;;;16.50;12.00;;;;;;;;;;5092099;28;20565;-71
2024/03/08 14:14:31;;;;;;;19.67;13.75;;;;;;;;;;5093365;28;20497;-62
2024/03/08 14:16:58;;;;;;;18.38;13.57;;;;;;;;;;5093103;28;20047;-62
2024/03/08 14:19:23;;;;;;;21.13;15.20;;;;;;;;;;5094962;28;20032;-63
2024/03/08 14:24:24;;;;;;;20.25;14.07;;;;;;;;;;5074046;22;20420;-72
2024/03/08 14:26:51;;;;;;;15.70;12.38;;;;;;;;;;5075101;28;20024;-72
2024/03/08 14:29:17;;;;;;;37.03;33.25;;;;;;;;;;5074736;28;20032;-72